sensor_id;sensor_type;location;lat;lon;timestamp;temperature;humidity
17954;DHT22;9102;53.548;9.926;2023-10-31T00:01:32;11.50;99.90
17954;DHT22;9102;53.548;9.926;2023-10-31T00:03:59;11.50;99.90
17954;DHT22;9102;53.548;9.926;2023-10-31T00:06:27;11.50;99.90
17954;DHT22;9102;53.548;9.926;2023-10-31T00:08:54;11.50;99.90
17954;DHT22;9102;53.548;9.926;2023-10-31T00:11:21;11.40;99.90
17954;DHT22;9102;53.548;9.926;2023-10-31T00:13:48;11.40;99.90
17954;DHT22;9102;53.548;9.926;2023-10-31T00:16:15;11.40;99.90
17954;DHT22;9102;53.548;9.926;2023-10-31T00:18:42;11.30;99.90
17954;DHT22;9102;53.548;9.926;2023-10-31T00:21:08;11.40;99.90
17954;DHT22;9102;53.548;9.926;2023-10-31T00:23:43;11.40;99.90
17954;DHT22;9102;53.548;9.926;2023-10-31T00:26:10;11.40;99.90
17954;DHT22;9102;53.548;9.926;2023-10-31T00:28:37;11.40;99.90
17954;DHT22;9102;53.548;9.926;2023-10-31T00:31:04;11.40;99.90
17954;DHT22;9102;53.548;9.926;2023-10-31T00:33:32;11.40;99.90
17954;DHT22;9102;53.548;9.926;2023-10-31T00:36:01;11.40;99.90
17954;DHT22;9102;53.548;9.926;2023-10-31T00:38:28;11.30;99.90
17954;DHT22;9102;53.548;9.926;2023-10-31T00:40:56;11.40;99.90
17954;DHT22;9102;53.548;9.926;2023-10-31T00:43:23;11.50;99.90
17954;DHT22;9102;53.548;9.926;2023-10-31T00:45:50;11.50;99.90
17954;DHT22;9102;53.548;9.926;2023-10-31T00:48:17;11.50;99.90
17954;DHT22;9102;53.548;9.926;2023-10-31T00:50:44;11.50;99.90
17954;DHT22;9102;53.548;9.926;2023-10-31T00:53:11;11.50;99.90
17954;DHT22;9102;53.548;9.926;2023-10-31T00:55:40;11.50;99.90
17954;DHT22;9102;53.548;9.926;2023-10-31T00:58:08;11.50;99.90
17954;DHT22;9102;53.548;9.926;2023-10-31T01:00:34;11.50;99.90
17954;DHT22;9102;53.548;9.926;2023-10-31T01:03:02;11.50;99.90
17954;DHT22;9102;53.548;9.926;2023-10-31T01:05:29;11.50;99.90
17954;DHT22;9102;53.548;9.926;2023-10-31T01:07:56;11.50;99.90
17954;DHT22;9102;53.548;9.926;2023-10-31T01:10:23;11.50;99.90
17954;DHT22;9102;53.548;9.926;2023-10-31T01:12:49;11.50;99.90
17954;DHT22;9102;53.548;9.926;2023-10-31T01:15:18;11.50;99.90
17954;DHT22;9102;53.548;9.926;2023-10-31T01:17:45;11.50;99.90
17954;DHT22;9102;53.548;9.926;2023-10-31T01:20:11;11.50;99.90
17954;DHT22;9102;53.548;9.926;2023-10-31T01:22:38;11.60;99.90
17954;DHT22;9102;53.548;9.926;2023-10-31T01:25:06;11.50;99.90
17954;DHT22;9102;53.548;9.926;2023-10-31T01:27:33;11.50;99.90
17954;DHT22;9102;53.548;9.926;2023-10-31T01:29:59;11.50;99.90
17954;DHT22;9102;53.548;9.926;2023-10-31T01:32:28;11.50;99.90
17954;DHT22;9102;53.548;9.926;2023-10-31T01:34:54;11.50;99.90
17954;DHT22;9102;53.548;9.926;2023-10-31T01:37:21;11.50;99.90
17954;DHT22;9102;53.548;9.926;2023-10-31T01:39:48;11.50;99.90
17954;DHT22;9102;53.548;9.926;2023-10-31T01:42:15;11.50;99.90
17954;DHT22;9102;53.548;9.926;2023-10-31T01:44:42;11.50;99.90
17954;DHT22;9102;53.548;9.926;2023-10-31T01:47:09;11.60;99.90
17954;DHT22;9102;53.548;9.926;2023-10-31T01:49:37;11.60;99.90
17954;DHT22;9102;53.548;9.926;2023-10-31T01:52:05;11.60;99.90
17954;DHT22;9102;53.548;9.926;2023-10-31T01:54:33;11.60;99.90
17954;DHT22;9102;53.548;9.926;2023-10-31T01:57:00;11.60;99.90
17954;DHT22;9102;53.548;9.926;2023-10-31T01:59:28;11.60;99.90
17954;DHT22;9102;53.548;9.926;2023-10-31T02:01:55;11.60;99.90
17954;DHT22;9102;53.548;9.926;2023-10-31T02:04:23;11.60;99.90
17954;DHT22;9102;53.548;9.926;2023-10-31T02:06:51;11.60;99.90
17954;DHT22;9102;53.548;9.926;2023-10-31T02:09:18;11.60;99.90
17954;DHT22;9102;53.548;9.926;2023-10-31T02:11:45;11.60;99.90
17954;DHT22;9102;53.548;9.926;2023-10-31T02:14:12;11.60;99.90
17954;DHT22;9102;53.548;9.926;2023-10-31T02:16:39;11.60;99.90
17954;DHT22;9102;53.548;9.926;2023-10-31T02:19:06;11.60;99.90
17954;DHT22;9102;53.548;9.926;2023-10-31T02:21:33;11.60;99.90
17954;DHT22;9102;53.548;9.926;2023-10-31T02:24:03;11.60;99.90
17954;DHT22;9102;53.548;9.926;2023-10-31T02:26:30;11.60;99.90
17954;DHT22;9102;53.548;9.926;2023-10-31T02:28:57;11.60;99.90
17954;DHT22;9102;53.548;9.926;2023-10-31T02:31:24;11.60;99.90
17954;DHT22;9102;53.548;9.926;2023-10-31T02:33:51;11.60;99.90
17954;DHT22;9102;53.548;9.926;2023-10-31T02:36:18;11.60;99.90
17954;DHT22;9102;53.548;9.926;2023-10-31T02:38:45;11.60;99.90
17954;DHT22;9102;53.548;9.926;2023-10-31T02:41:13;11.60;99.90
17954;DHT22;9102;53.548;9.926;2023-10-31T02:43:41;11.60;99.90
17954;DHT22;9102;53.548;9.926;2023-10-31T02:46:08;11.60;99.90
17954;DHT22;9102;53.548;9.926;2023-10-31T02:48:37;11.60;99.90
17954;DHT22;9102;53.548;9.926;2023-10-31T02:51:05;11.60;99.90
17954;DHT22;9102;53.548;9.926;2023-10-31T02:53:32;11.60;99.90
17954;DHT22;9102;53.548;9.926;2023-10-31T02:56:00;11.60;99.90
17954;DHT22;9102;53.548;9.926;2023-10-31T02:58:28;11.60;99.90
17954;DHT22;9102;53.548;9.926;2023-10-31T03:00:55;11.60;99.90
17954;DHT22;9102;53.548;9.926;2023-10-31T03:03:21;11.60;99.90
17954;DHT22;9102;53.548;9.926;2023-10-31T03:05:48;11.70;99.90
17954;DHT22;9102;53.548;9.926;2023-10-31T03:08:15;11.60;99.90
17954;DHT22;9102;53.548;9.926;2023-10-31T03:10:47;11.70;99.90
17954;DHT22;9102;53.548;9.926;2023-10-31T03:13:15;11.60;99.90
17954;DHT22;9102;53.548;9.926;2023-10-31T03:15:44;11.60;99.90
17954;DHT22;9102;53.548;9.926;2023-10-31T03:18:10;11.60;99.90
17954;DHT22;9102;53.548;9.926;2023-10-31T03:20:37;11.80;99.90
17954;DHT22;9102;53.548;9.926;2023-10-31T03:23:04;11.70;99.90
17954;DHT22;9102;53.548;9.926;2023-10-31T03:25:31;11.70;99.90
17954;DHT22;9102;53.548;9.926;2023-10-31T03:27:57;11.70;99.90
17954;DHT22;9102;53.548;9.926;2023-10-31T03:30:24;11.70;99.90
17954;DHT22;9102;53.548;9.926;2023-10-31T03:32:53;11.70;99.90
17954;DHT22;9102;53.548;9.926;2023-10-31T03:35:19;11.70;99.90
17954;DHT22;9102;53.548;9.926;2023-10-31T03:37:46;11.70;99.90
17954;DHT22;9102;53.548;9.926;2023-10-31T03:40:13;11.80;99.90
17954;DHT22;9102;53.548;9.926;2023-10-31T03:42:40;11.80;99.90
17954;DHT22;9102;53.548;9.926;2023-10-31T03:45:08;11.70;99.90
17954;DHT22;9102;53.548;9.926;2023-10-31T03:47:34;11.80;99.90
17954;DHT22;9102;53.548;9.926;2023-10-31T03:50:03;11.80;99.90
17954;DHT22;9102;53.548;9.926;2023-10-31T03:52:30;11.80;99.90
17954;DHT22;9102;53.548;9.926;2023-10-31T03:54:56;11.80;99.90
17954;DHT22;9102;53.548;9.926;2023-10-31T03:57:23;11.80;99.90
17954;DHT22;9102;53.548;9.926;2023-10-31T03:59:50;11.80;99.90
17954;DHT22;9102;53.548;9.926;2023-10-31T04:02:17;11.80;99.90
17954;DHT22;9102;53.548;9.926;2023-10-31T04:04:44;11.90;99.90
17954;DHT22;9102;53.548;9.926;2023-10-31T04:07:12;11.90;99.90
17954;DHT22;9102;53.548;9.926;2023-10-31T04:09:38;12.00;99.90
17954;DHT22;9102;53.548;9.926;2023-10-31T04:12:05;11.90;99.90
17954;DHT22;9102;53.548;9.926;2023-10-31T04:14:32;12.00;99.90
17954;DHT22;9102;53.548;9.926;2023-10-31T04:17:00;12.00;99.90
17954;DHT22;9102;53.548;9.926;2023-10-31T04:19:27;12.00;99.90
17954;DHT22;9102;53.548;9.926;2023-10-31T04:21:54;12.00;99.90
17954;DHT22;9102;53.548;9.926;2023-10-31T04:24:22;12.00;99.90
17954;DHT22;9102;53.548;9.926;2023-10-31T04:26:49;12.00;99.90
17954;DHT22;9102;53.548;9.926;2023-10-31T04:29:15;12.00;99.90
17954;DHT22;9102;53.548;9.926;2023-10-31T04:31:42;12.10;99.90
17954;DHT22;9102;53.548;9.926;2023-10-31T04:34:09;12.10;99.90
17954;DHT22;9102;53.548;9.926;2023-10-31T04:36:37;12.10;99.90
17954;DHT22;9102;53.548;9.926;2023-10-31T04:39:04;12.10;99.90
17954;DHT22;9102;53.548;9.926;2023-10-31T04:41:32;12.10;99.90
17954;DHT22;9102;53.548;9.926;2023-10-31T04:43:59;12.10;99.90
17954;DHT22;9102;53.548;9.926;2023-10-31T04:46:25;12.10;99.90
17954;DHT22;9102;53.548;9.926;2023-10-31T04:48:53;12.10;99.90
17954;DHT22;9102;53.548;9.926;2023-10-31T04:51:20;12.10;99.90
17954;DHT22;9102;53.548;9.926;2023-10-31T04:53:46;12.10;99.90
17954;DHT22;9102;53.548;9.926;2023-10-31T04:56:15;12.10;99.90
17954;DHT22;9102;53.548;9.926;2023-10-31T04:58:43;12.10;99.90
17954;DHT22;9102;53.548;9.926;2023-10-31T05:01:11;12.10;99.90
17954;DHT22;9102;53.548;9.926;2023-10-31T05:03:39;12.10;99.90
17954;DHT22;9102;53.548;9.926;2023-10-31T05:06:06;12.10;99.90
17954;DHT22;9102;53.548;9.926;2023-10-31T05:08:33;12.10;99.90
17954;DHT22;9102;53.548;9.926;2023-10-31T05:11:00;12.00;99.90
17954;DHT22;9102;53.548;9.926;2023-10-31T05:13:26;12.10;99.90
17954;DHT22;9102;53.548;9.926;2023-10-31T05:15:55;12.10;99.90
17954;DHT22;9102;53.548;9.926;2023-10-31T05:18:22;12.10;99.90
17954;DHT22;9102;53.548;9.926;2023-10-31T05:20:49;12.10;99.90
17954;DHT22;9102;53.548;9.926;2023-10-31T05:23:15;12.20;99.90
17954;DHT22;9102;53.548;9.926;2023-10-31T05:25:42;12.10;99.90
17954;DHT22;9102;53.548;9.926;2023-10-31T05:28:09;12.10;99.90
17954;DHT22;9102;53.548;9.926;2023-10-31T05:30:35;12.10;99.90
17954;DHT22;9102;53.548;9.926;2023-10-31T05:33:04;12.10;99.90
17954;DHT22;9102;53.548;9.926;2023-10-31T05:35:30;12.10;99.90
17954;DHT22;9102;53.548;9.926;2023-10-31T05:37:57;12.20;99.90
17954;DHT22;9102;53.548;9.926;2023-10-31T05:40:24;12.10;99.90
17954;DHT22;9102;53.548;9.926;2023-10-31T05:42:52;12.10;99.90
17954;DHT22;9102;53.548;9.926;2023-10-31T05:45:19;12.10;99.90
17954;DHT22;9102;53.548;9.926;2023-10-31T05:47:46;12.10;99.90
17954;DHT22;9102;53.548;9.926;2023-10-31T05:50:15;12.20;99.90
17954;DHT22;9102;53.548;9.926;2023-10-31T05:52:42;12.20;99.90
17954;DHT22;9102;53.548;9.926;2023-10-31T05:55:09;12.10;99.90
17954;DHT22;9102;53.548;9.926;2023-10-31T05:57:35;12.10;99.90
17954;DHT22;9102;53.548;9.926;2023-10-31T06:00:03;12.20;99.90
17954;DHT22;9102;53.548;9.926;2023-10-31T06:02:29;12.20;99.90
17954;DHT22;9102;53.548;9.926;2023-10-31T06:04:56;12.20;99.90
17954;DHT22;9102;53.548;9.926;2023-10-31T06:07:23;12.20;99.90
17954;DHT22;9102;53.548;9.926;2023-10-31T06:09:50;12.20;99.90
17954;DHT22;9102;53.548;9.926;2023-10-31T06:12:17;12.20;99.90
17954;DHT22;9102;53.548;9.926;2023-10-31T06:14:44;12.20;99.90
17954;DHT22;9102;53.548;9.926;2023-10-31T06:17:11;12.20;99.90
17954;DHT22;9102;53.548;9.926;2023-10-31T06:19:37;12.20;99.90
17954;DHT22;9102;53.548;9.926;2023-10-31T06:22:10;12.20;99.90
17954;DHT22;9102;53.548;9.926;2023-10-31T06:24:38;12.20;99.90
17954;DHT22;9102;53.548;9.926;2023-10-31T06:27:06;12.20;99.90
17954;DHT22;9102;53.548;9.926;2023-10-31T06:29:33;12.20;99.90
17954;DHT22;9102;53.548;9.926;2023-10-31T06:31:59;12.20;99.90
17954;DHT22;9102;53.548;9.926;2023-10-31T06:34:26;12.20;99.90
17954;DHT22;9102;53.548;9.926;2023-10-31T06:36:53;12.20;99.90
17954;DHT22;9102;53.548;9.926;2023-10-31T06:39:20;12.20;99.90
17954;DHT22;9102;53.548;9.926;2023-10-31T06:41:49;12.20;99.90
17954;DHT22;9102;53.548;9.926;2023-10-31T06:44:16;12.20;99.90
17954;DHT22;9102;53.548;9.926;2023-10-31T06:46:43;12.20;99.90
17954;DHT22;9102;53.548;9.926;2023-10-31T06:49:10;12.20;99.90
17954;DHT22;9102;53.548;9.926;2023-10-31T06:51:36;12.20;99.90
17954;DHT22;9102;53.548;9.926;2023-10-31T06:54:04;12.20;99.90
17954;DHT22;9102;53.548;9.926;2023-10-31T06:56:30;12.20;99.90
17954;DHT22;9102;53.548;9.926;2023-10-31T06:58:58;12.30;99.90
17954;DHT22;9102;53.548;9.926;2023-10-31T07:01:25;12.10;99.90
17954;DHT22;9102;53.548;9.926;2023-10-31T07:03:52;12.30;99.90
17954;DHT22;9102;53.548;9.926;2023-10-31T07:06:19;12.20;99.90
17954;DHT22;9102;53.548;9.926;2023-10-31T07:08:46;12.30;99.90
17954;DHT22;9102;53.548;9.926;2023-10-31T07:11:13;12.30;99.90
17954;DHT22;9102;53.548;9.926;2023-10-31T07:13:40;12.20;99.90
17954;DHT22;9102;53.548;9.926;2023-10-31T07:16:08;12.30;99.90
17954;DHT22;9102;53.548;9.926;2023-10-31T07:18:35;12.30;99.90
17954;DHT22;9102;53.548;9.926;2023-10-31T07:21:02;12.30;99.90
17954;DHT22;9102;53.548;9.926;2023-10-31T07:23:29;12.30;99.90
17954;DHT22;9102;53.548;9.926;2023-10-31T07:25:56;12.30;99.90
17954;DHT22;9102;53.548;9.926;2023-10-31T07:28:23;12.20;99.90
17954;DHT22;9102;53.548;9.926;2023-10-31T07:30:50;12.20;99.90
17954;DHT22;9102;53.548;9.926;2023-10-31T07:33:18;12.20;99.90
17954;DHT22;9102;53.548;9.926;2023-10-31T07:35:45;12.20;99.90
17954;DHT22;9102;53.548;9.926;2023-10-31T07:38:12;12.10;99.90
17954;DHT22;9102;53.548;9.926;2023-10-31T07:40:40;12.10;99.90
17954;DHT22;9102;53.548;9.926;2023-10-31T07:43:07;12.10;99.90
17954;DHT22;9102;53.548;9.926;2023-10-31T07:45:34;12.00;99.90
17954;DHT22;9102;53.548;9.926;2023-10-31T07:48:01;11.80;99.90
17954;DHT22;9102;53.548;9.926;2023-10-31T07:50:29;11.80;99.90
17954;DHT22;9102;53.548;9.926;2023-10-31T07:52:56;11.80;99.90
17954;DHT22;9102;53.548;9.926;2023-10-31T07:55:23;11.70;99.90
17954;DHT22;9102;53.548;9.926;2023-10-31T07:57:50;11.70;99.90
17954;DHT22;9102;53.548;9.926;2023-10-31T08:00:18;11.70;99.90
17954;DHT22;9102;53.548;9.926;2023-10-31T08:02:46;11.60;99.90
17954;DHT22;9102;53.548;9.926;2023-10-31T08:05:13;11.50;99.90
17954;DHT22;9102;53.548;9.926;2023-10-31T08:07:42;11.50;99.90
17954;DHT22;9102;53.548;9.926;2023-10-31T08:10:09;11.50;99.90
17954;DHT22;9102;53.548;9.926;2023-10-31T08:12:36;11.50;99.90
17954;DHT22;9102;53.548;9.926;2023-10-31T08:15:04;11.40;99.90
17954;DHT22;9102;53.548;9.926;2023-10-31T08:17:31;11.30;99.90
17954;DHT22;9102;53.548;9.926;2023-10-31T08:19:58;11.30;99.90
17954;DHT22;9102;53.548;9.926;2023-10-31T08:22:25;11.20;99.90
17954;DHT22;9102;53.548;9.926;2023-10-31T08:24:53;11.20;99.90
17954;DHT22;9102;53.548;9.926;2023-10-31T08:27:20;11.10;99.90
17954;DHT22;9102;53.548;9.926;2023-10-31T08:29:47;11.20;99.90
17954;DHT22;9102;53.548;9.926;2023-10-31T08:32:14;11.10;99.90
17954;DHT22;9102;53.548;9.926;2023-10-31T08:34:41;11.10;99.90
17954;DHT22;9102;53.548;9.926;2023-10-31T08:37:08;11.10;99.90
17954;DHT22;9102;53.548;9.926;2023-10-31T08:39:35;11.20;99.90
17954;DHT22;9102;53.548;9.926;2023-10-31T08:42:03;11.10;99.90
17954;DHT22;9102;53.548;9.926;2023-10-31T08:44:31;11.10;99.90
17954;DHT22;9102;53.548;9.926;2023-10-31T08:46:58;11.20;99.90
17954;DHT22;9102;53.548;9.926;2023-10-31T08:49:25;11.30;99.90
17954;DHT22;9102;53.548;9.926;2023-10-31T08:51:52;11.30;99.90
17954;DHT22;9102;53.548;9.926;2023-10-31T08:54:19;11.40;99.90
17954;DHT22;9102;53.548;9.926;2023-10-31T08:56:46;11.40;99.90
17954;DHT22;9102;53.548;9.926;2023-10-31T08:59:14;11.40;99.90
17954;DHT22;9102;53.548;9.926;2023-10-31T09:01:40;11.50;99.90
17954;DHT22;9102;53.548;9.926;2023-10-31T09:04:07;11.60;99.90
17954;DHT22;9102;53.548;9.926;2023-10-31T09:06:35;11.50;99.90
17954;DHT22;9102;53.548;9.926;2023-10-31T09:09:02;11.50;99.90
17954;DHT22;9102;53.548;9.926;2023-10-31T09:11:29;11.40;99.90
17954;DHT22;9102;53.548;9.926;2023-10-31T09:13:56;11.40;99.90
17954;DHT22;9102;53.548;9.926;2023-10-31T09:16:24;11.50;99.90
17954;DHT22;9102;53.548;9.926;2023-10-31T09:18:51;11.50;99.90
17954;DHT22;9102;53.548;9.926;2023-10-31T09:21:18;11.50;99.90
17954;DHT22;9102;53.548;9.926;2023-10-31T09:23:45;11.50;99.90
17954;DHT22;9102;53.548;9.926;2023-10-31T09:26:12;11.50;99.90
17954;DHT22;9102;53.548;9.926;2023-10-31T09:28:39;11.50;99.90
17954;DHT22;9102;53.548;9.926;2023-10-31T09:31:19;11.50;99.90
17954;DHT22;9102;53.548;9.926;2023-10-31T09:33:47;11.40;99.90
17954;DHT22;9102;53.548;9.926;2023-10-31T09:36:14;11.30;99.90
17954;DHT22;9102;53.548;9.926;2023-10-31T09:38:41;11.20;99.90
17954;DHT22;9102;53.548;9.926;2023-10-31T09:41:08;11.20;99.90
17954;DHT22;9102;53.548;9.926;2023-10-31T09:43:35;11.10;99.90
17954;DHT22;9102;53.548;9.926;2023-10-31T09:46:02;11.00;99.90
17954;DHT22;9102;53.548;9.926;2023-10-31T09:48:30;11.00;99.90
17954;DHT22;9102;53.548;9.926;2023-10-31T09:50:59;10.90;99.90
17954;DHT22;9102;53.548;9.926;2023-10-31T09:53:27;10.80;99.90
17954;DHT22;9102;53.548;9.926;2023-10-31T09:55:55;10.70;99.90
17954;DHT22;9102;53.548;9.926;2023-10-31T09:58:22;10.60;99.90
17954;DHT22;9102;53.548;9.926;2023-10-31T10:00:49;10.50;99.90
17954;DHT22;9102;53.548;9.926;2023-10-31T10:03:16;10.50;99.90
17954;DHT22;9102;53.548;9.926;2023-10-31T10:05:44;10.50;99.90
17954;DHT22;9102;53.548;9.926;2023-10-31T10:08:14;10.50;99.90
17954;DHT22;9102;53.548;9.926;2023-10-31T10:10:41;10.60;99.90
17954;DHT22;9102;53.548;9.926;2023-10-31T10:13:08;10.60;99.90
17954;DHT22;9102;53.548;9.926;2023-10-31T10:15:43;10.60;99.90
17954;DHT22;9102;53.548;9.926;2023-10-31T10:18:10;10.60;99.90
17954;DHT22;9102;53.548;9.926;2023-10-31T10:20:54;10.60;99.90
17954;DHT22;9102;53.548;9.926;2023-10-31T10:23:23;10.60;99.90
17954;DHT22;9102;53.548;9.926;2023-10-31T10:25:50;10.60;99.90
17954;DHT22;9102;53.548;9.926;2023-10-31T10:28:17;10.60;99.90
17954;DHT22;9102;53.548;9.926;2023-10-31T10:30:45;10.60;99.90
17954;DHT22;9102;53.548;9.926;2023-10-31T10:33:12;10.50;99.90
17954;DHT22;9102;53.548;9.926;2023-10-31T10:35:39;10.50;99.90
17954;DHT22;9102;53.548;9.926;2023-10-31T10:38:10;10.50;99.90
17954;DHT22;9102;53.548;9.926;2023-10-31T10:40:41;10.50;99.90
17954;DHT22;9102;53.548;9.926;2023-10-31T10:43:14;10.50;99.90
17954;DHT22;9102;53.548;9.926;2023-10-31T10:45:43;10.60;99.90
17954;DHT22;9102;53.548;9.926;2023-10-31T10:48:14;10.50;99.90
17954;DHT22;9102;53.548;9.926;2023-10-31T10:50:44;10.60;99.90
17954;DHT22;9102;53.548;9.926;2023-10-31T10:53:16;10.50;99.90
17954;DHT22;9102;53.548;9.926;2023-10-31T10:55:51;10.50;99.90
17954;DHT22;9102;53.548;9.926;2023-10-31T10:58:24;10.50;99.90
17954;DHT22;9102;53.548;9.926;2023-10-31T11:00:53;10.50;99.90
17954;DHT22;9102;53.548;9.926;2023-10-31T11:03:22;10.50;99.90
17954;DHT22;9102;53.548;9.926;2023-10-31T11:05:50;10.50;99.90
17954;DHT22;9102;53.548;9.926;2023-10-31T11:08:19;10.50;99.90
17954;DHT22;9102;53.548;9.926;2023-10-31T11:10:48;10.50;99.90
17954;DHT22;9102;53.548;9.926;2023-10-31T11:13:15;10.50;99.90
17954;DHT22;9102;53.548;9.926;2023-10-31T11:15:42;10.50;99.90
17954;DHT22;9102;53.548;9.926;2023-10-31T11:18:10;10.60;99.90
17954;DHT22;9102;53.548;9.926;2023-10-31T11:20:38;10.50;99.90
17954;DHT22;9102;53.548;9.926;2023-10-31T11:23:06;10.60;99.90
17954;DHT22;9102;53.548;9.926;2023-10-31T11:25:33;10.60;99.90
17954;DHT22;9102;53.548;9.926;2023-10-31T11:28:16;10.60;99.90
17954;DHT22;9102;53.548;9.926;2023-10-31T11:30:45;10.60;99.90
17954;DHT22;9102;53.548;9.926;2023-10-31T11:33:15;10.60;99.90
17954;DHT22;9102;53.548;9.926;2023-10-31T11:35:43;10.70;99.90
17954;DHT22;9102;53.548;9.926;2023-10-31T11:38:11;10.80;99.90
17954;DHT22;9102;53.548;9.926;2023-10-31T11:40:38;10.80;99.90
17954;DHT22;9102;53.548;9.926;2023-10-31T11:43:36;10.80;99.90
17954;DHT22;9102;53.548;9.926;2023-10-31T11:46:03;10.80;99.90
17954;DHT22;9102;53.548;9.926;2023-10-31T11:48:45;10.90;99.90
17954;DHT22;9102;53.548;9.926;2023-10-31T11:51:13;10.90;99.90
17954;DHT22;9102;53.548;9.926;2023-10-31T11:53:40;10.90;99.90
17954;DHT22;9102;53.548;9.926;2023-10-31T11:56:09;10.90;99.90
17954;DHT22;9102;53.548;9.926;2023-10-31T11:58:38;11.10;99.90
17954;DHT22;9102;53.548;9.926;2023-10-31T12:01:06;11.10;99.90
17954;DHT22;9102;53.548;9.926;2023-10-31T12:03:37;11.00;99.90
17954;DHT22;9102;53.548;9.926;2023-10-31T12:06:04;11.00;99.90
17954;DHT22;9102;53.548;9.926;2023-10-31T12:08:33;11.10;99.90
17954;DHT22;9102;53.548;9.926;2023-10-31T12:11:07;11.10;99.90
17954;DHT22;9102;53.548;9.926;2023-10-31T12:13:36;11.10;99.90
17954;DHT22;9102;53.548;9.926;2023-10-31T12:16:05;11.20;99.90
17954;DHT22;9102;53.548;9.926;2023-10-31T12:18:33;11.30;99.90
17954;DHT22;9102;53.548;9.926;2023-10-31T12:21:00;11.40;99.90
17954;DHT22;9102;53.548;9.926;2023-10-31T12:23:27;11.50;99.90
17954;DHT22;9102;53.548;9.926;2023-10-31T12:25:55;11.40;99.90
17954;DHT22;9102;53.548;9.926;2023-10-31T12:28:23;11.60;99.90
17954;DHT22;9102;53.548;9.926;2023-10-31T12:30:51;11.80;99.90
17954;DHT22;9102;53.548;9.926;2023-10-31T12:33:22;11.80;99.90
17954;DHT22;9102;53.548;9.926;2023-10-31T12:35:51;11.80;99.90
17954;DHT22;9102;53.548;9.926;2023-10-31T12:38:18;11.80;99.90
17954;DHT22;9102;53.548;9.926;2023-10-31T12:40:46;11.70;99.90
17954;DHT22;9102;53.548;9.926;2023-10-31T12:43:13;11.80;99.90
17954;DHT22;9102;53.548;9.926;2023-10-31T12:45:40;11.80;99.90
17954;DHT22;9102;53.548;9.926;2023-10-31T12:48:08;11.90;99.90
17954;DHT22;9102;53.548;9.926;2023-10-31T12:50:37;11.90;99.90
17954;DHT22;9102;53.548;9.926;2023-10-31T12:53:06;11.90;99.90
17954;DHT22;9102;53.548;9.926;2023-10-31T12:55:38;11.90;99.90
17954;DHT22;9102;53.548;9.926;2023-10-31T12:58:05;12.00;99.90
17954;DHT22;9102;53.548;9.926;2023-10-31T13:00:33;12.00;99.90
17954;DHT22;9102;53.548;9.926;2023-10-31T13:03:01;12.20;99.90
17954;DHT22;9102;53.548;9.926;2023-10-31T13:05:29;12.10;99.90
17954;DHT22;9102;53.548;9.926;2023-10-31T13:07:57;12.10;99.90
17954;DHT22;9102;53.548;9.926;2023-10-31T13:10:26;12.10;99.90
17954;DHT22;9102;53.548;9.926;2023-10-31T13:12:53;12.10;99.90
17954;DHT22;9102;53.548;9.926;2023-10-31T13:15:22;12.00;99.90
17954;DHT22;9102;53.548;9.926;2023-10-31T13:17:50;12.00;99.90
17954;DHT22;9102;53.548;9.926;2023-10-31T13:20:19;12.00;99.90
17954;DHT22;9102;53.548;9.926;2023-10-31T13:22:47;11.90;99.90
17954;DHT22;9102;53.548;9.926;2023-10-31T13:25:16;11.80;99.90
17954;DHT22;9102;53.548;9.926;2023-10-31T13:27:44;11.60;99.90
17954;DHT22;9102;53.548;9.926;2023-10-31T13:30:16;11.60;99.90
17954;DHT22;9102;53.548;9.926;2023-10-31T13:32:44;11.50;99.90
17954;DHT22;9102;53.548;9.926;2023-10-31T13:35:10;11.40;99.90
17954;DHT22;9102;53.548;9.926;2023-10-31T13:37:39;11.30;99.90
17954;DHT22;9102;53.548;9.926;2023-10-31T13:40:07;11.20;99.90
17954;DHT22;9102;53.548;9.926;2023-10-31T13:42:35;11.10;99.90
17954;DHT22;9102;53.548;9.926;2023-10-31T13:45:03;11.00;99.90
17954;DHT22;9102;53.548;9.926;2023-10-31T13:47:29;10.70;99.90
17954;DHT22;9102;53.548;9.926;2023-10-31T13:49:56;10.50;99.90
17954;DHT22;9102;53.548;9.926;2023-10-31T13:52:23;10.30;99.90
17954;DHT22;9102;53.548;9.926;2023-10-31T13:54:50;10.20;99.90
17954;DHT22;9102;53.548;9.926;2023-10-31T13:57:17;9.80;99.90
17954;DHT22;9102;53.548;9.926;2023-10-31T13:59:45;9.70;99.90
17954;DHT22;9102;53.548;9.926;2023-10-31T14:02:12;9.60;99.90
17954;DHT22;9102;53.548;9.926;2023-10-31T14:04:39;9.50;99.90
17954;DHT22;9102;53.548;9.926;2023-10-31T14:07:05;9.40;99.90
17954;DHT22;9102;53.548;9.926;2023-10-31T14:09:32;9.40;99.90
17954;DHT22;9102;53.548;9.926;2023-10-31T14:11:59;9.40;99.90
17954;DHT22;9102;53.548;9.926;2023-10-31T14:14:26;9.40;99.90
17954;DHT22;9102;53.548;9.926;2023-10-31T14:16:54;9.40;99.90
17954;DHT22;9102;53.548;9.926;2023-10-31T14:19:21;9.50;99.90
17954;DHT22;9102;53.548;9.926;2023-10-31T14:21:48;9.30;99.90
17954;DHT22;9102;53.548;9.926;2023-10-31T14:24:15;9.20;99.90
17954;DHT22;9102;53.548;9.926;2023-10-31T14:26:42;9.10;99.90
17954;DHT22;9102;53.548;9.926;2023-10-31T14:29:09;9.00;99.90
17954;DHT22;9102;53.548;9.926;2023-10-31T14:31:39;8.80;99.90
17954;DHT22;9102;53.548;9.926;2023-10-31T14:34:08;8.80;99.90
17954;DHT22;9102;53.548;9.926;2023-10-31T14:36:35;8.80;99.90
17954;DHT22;9102;53.548;9.926;2023-10-31T14:39:02;8.70;99.90
17954;DHT22;9102;53.548;9.926;2023-10-31T14:41:30;8.70;99.90
17954;DHT22;9102;53.548;9.926;2023-10-31T14:43:59;8.70;99.90
17954;DHT22;9102;53.548;9.926;2023-10-31T14:46:26;8.70;99.90
17954;DHT22;9102;53.548;9.926;2023-10-31T14:48:53;8.70;99.90
17954;DHT22;9102;53.548;9.926;2023-10-31T14:51:21;8.60;99.90
17954;DHT22;9102;53.548;9.926;2023-10-31T14:53:48;8.60;99.90
17954;DHT22;9102;53.548;9.926;2023-10-31T14:56:15;8.60;99.90
17954;DHT22;9102;53.548;9.926;2023-10-31T14:58:42;8.60;99.90
17954;DHT22;9102;53.548;9.926;2023-10-31T15:01:08;8.50;99.90
17954;DHT22;9102;53.548;9.926;2023-10-31T15:03:35;8.50;99.90
17954;DHT22;9102;53.548;9.926;2023-10-31T15:06:02;8.50;99.90
17954;DHT22;9102;53.548;9.926;2023-10-31T15:08:31;8.40;99.90
17954;DHT22;9102;53.548;9.926;2023-10-31T15:10:58;8.20;99.90
17954;DHT22;9102;53.548;9.926;2023-10-31T15:13:24;8.20;99.90
17954;DHT22;9102;53.548;9.926;2023-10-31T15:15:51;8.10;99.90
17954;DHT22;9102;53.548;9.926;2023-10-31T15:18:18;8.00;99.90
17954;DHT22;9102;53.548;9.926;2023-10-31T15:20:45;8.00;99.90
17954;DHT22;9102;53.548;9.926;2023-10-31T15:23:12;7.90;99.90
17954;DHT22;9102;53.548;9.926;2023-10-31T15:25:41;7.80;99.90
17954;DHT22;9102;53.548;9.926;2023-10-31T15:28:09;7.70;99.90
17954;DHT22;9102;53.548;9.926;2023-10-31T15:30:39;7.60;99.90
17954;DHT22;9102;53.548;9.926;2023-10-31T15:33:16;7.60;99.90
17954;DHT22;9102;53.548;9.926;2023-10-31T15:35:43;7.60;99.90
17954;DHT22;9102;53.548;9.926;2023-10-31T15:38:10;7.50;99.90
17954;DHT22;9102;53.548;9.926;2023-10-31T15:40:36;7.50;99.90
17954;DHT22;9102;53.548;9.926;2023-10-31T15:43:04;7.50;99.90
17954;DHT22;9102;53.548;9.926;2023-10-31T15:45:31;7.50;99.90
17954;DHT22;9102;53.548;9.926;2023-10-31T15:48:05;7.40;99.90
17954;DHT22;9102;53.548;9.926;2023-10-31T15:50:34;7.50;99.90